createdAt,value
2018-08-06T15:01:52.578Z,99055.00
2018-08-06T15:03:59.204Z,99053.00
2018-08-06T15:06:04.965Z,99049.00
2018-08-06T15:08:08.657Z,99053.00
2018-08-06T15:10:18.132Z,99047.00
2018-08-06T15:12:23.122Z,99045.00
2018-08-06T15:14:26.807Z,99043.00
2018-08-06T15:16:49.642Z,99036.00
2018-08-06T15:18:59.872Z,99029.00
2018-08-06T15:21:06.524Z,99025.00
2018-08-06T15:23:16.112Z,99022.00
2018-08-06T15:25:34.204Z,99016.00
2018-08-06T15:27:38.157Z,99020.00
2018-08-06T15:29:42.459Z,99020.00
2018-08-06T15:31:48.561Z,99010.00
2018-08-06T15:33:53.854Z,99010.00
2018-08-06T15:35:59.966Z,99009.00
2018-08-06T15:38:06.482Z,99008.00
2018-08-06T15:40:13.704Z,99008.00
2018-08-06T15:42:25.709Z,99004.00
2018-08-06T15:44:34.823Z,99005.00
2018-08-06T15:46:39.973Z,99002.00
2018-08-06T15:48:46.996Z,98995.00
2018-08-06T15:50:51.714Z,98991.00
2018-08-06T15:52:58.003Z,98994.00
2018-08-06T15:55:07.342Z,98992.00
2018-08-06T15:57:12.900Z,98989.00
2018-08-06T15:59:21.162Z,98987.00
2018-08-06T16:01:25.833Z,98987.00
2018-08-06T16:03:35.986Z,98981.00
2018-08-06T16:05:46.235Z,98979.00
2018-08-06T16:07:58.086Z,98978.00
2018-08-06T16:10:01.818Z,98975.00
2018-08-06T16:12:12.246Z,98975.00
2018-08-06T16:14:24.287Z,98973.00
2018-08-06T16:16:29.902Z,98966.00
2018-08-06T16:18:37.868Z,98966.00
2018-08-06T16:22:56.054Z,98959.00
2018-08-06T16:25:15.085Z,98958.00
2018-08-06T16:27:25.647Z,98959.00
2018-08-06T16:29:40.982Z,98951.00
2018-08-06T16:31:51.351Z,98945.00
2018-08-06T16:34:09.302Z,98947.00
2018-08-06T16:36:18.281Z,98948.00
2018-08-06T16:38:46.187Z,98951.00
2018-08-06T16:40:58.567Z,98952.00
2018-08-06T16:43:04.865Z,98946.00
2018-08-06T16:45:09.690Z,98946.00
2018-08-06T16:47:14.466Z,98943.00
2018-08-06T16:49:20.286Z,98939.00
2018-08-06T16:51:23.957Z,98943.00
2018-08-06T16:53:28.380Z,98942.00
2018-08-06T16:55:33.485Z,98941.00
2018-08-06T16:57:37.312Z,98943.00
2018-08-06T16:59:42.363Z,98938.00
2018-08-06T17:01:46.516Z,98942.00
2018-08-06T17:03:50.421Z,98945.00
2018-08-06T17:05:54.607Z,98940.00
2018-08-06T17:07:58.784Z,98937.00
2018-08-06T17:10:03.552Z,98930.00
2018-08-06T17:12:10.633Z,98933.00
2018-08-06T17:14:16.919Z,98933.00
2018-08-06T17:16:25.914Z,98937.00
2018-08-06T17:18:36.121Z,98941.00
2018-08-06T17:20:48.353Z,98942.00
2018-08-06T17:22:54.815Z,98939.00
2018-08-06T17:25:10.122Z,98939.00
2018-08-06T17:27:34.608Z,98932.00
2018-08-06T17:29:41.191Z,98938.00
2018-08-06T17:31:49.711Z,98934.00
2018-08-06T17:33:53.632Z,98933.00
2018-08-06T17:35:58.614Z,98935.00
2018-08-06T17:38:03.590Z,98935.00
2018-08-06T17:40:12.834Z,98935.00
2018-08-06T17:42:18.385Z,98931.00
2018-08-06T17:44:24.991Z,98928.00
2018-08-06T17:46:33.065Z,98934.00
2018-08-06T17:48:38.504Z,98934.00
2018-08-06T17:50:43.458Z,98935.00
2018-08-06T17:52:51.826Z,98930.00
2018-08-06T17:54:55.728Z,98932.00
2018-08-06T17:56:59.925Z,98933.00
2018-08-06T17:59:05.715Z,98934.00
2018-08-06T18:01:12.050Z,98935.00
2018-08-06T18:03:19.037Z,98926.00
2018-08-06T18:05:25.664Z,98937.00
2018-08-06T18:07:34.398Z,98933.00
2018-08-06T18:09:39.628Z,98930.00
2018-08-06T18:11:46.086Z,98932.00
2018-08-06T18:13:49.704Z,98928.00
2018-08-06T18:15:54.023Z,98922.00
2018-08-06T18:17:58.400Z,98935.00
2018-08-06T18:20:02.420Z,98930.00
2018-08-06T18:22:06.558Z,98927.00
2018-08-06T18:24:13.765Z,98927.00
2018-08-06T18:26:17.777Z,98930.00
2018-08-06T18:28:22.963Z,98932.00
2018-08-06T18:30:26.994Z,98930.00
2018-08-06T18:32:33.005Z,98934.00
2018-08-06T18:34:40.069Z,98932.00
2018-08-06T18:36:46.079Z,98935.00
2018-08-06T18:38:50.145Z,98941.00
2018-08-06T18:40:54.187Z,98936.00
2018-08-06T18:42:58.646Z,98933.00
2018-08-06T18:45:03.104Z,98939.00
2018-08-06T18:47:07.864Z,98944.00
2018-08-06T18:49:12.384Z,98942.00
2018-08-06T18:51:16.397Z,98942.00
2018-08-06T18:53:23.791Z,98944.00
2018-08-06T18:55:28.749Z,98950.00
2018-08-06T18:57:46.403Z,98952.00
2018-08-06T18:59:56.605Z,98950.00
2018-08-06T19:02:02.002Z,98957.00
2018-08-06T19:04:06.883Z,98955.00
2018-08-06T19:06:15.304Z,98960.00
2018-08-06T19:08:19.983Z,98962.00
2018-08-06T19:10:27.853Z,98964.00
2018-08-06T19:12:40.846Z,98963.00
2018-08-06T19:14:49.256Z,98969.00
2018-08-06T19:16:55.227Z,98975.00
2018-08-06T19:19:05.876Z,98976.00
2018-08-06T19:21:09.708Z,98976.00
2018-08-06T19:23:14.909Z,98978.00
2018-08-06T19:25:26.894Z,98977.00
2018-08-06T19:27:32.334Z,98976.00
2018-08-06T19:29:36.972Z,98981.00
2018-08-06T19:31:43.419Z,98985.00
2018-08-06T19:33:51.057Z,98980.00
2018-08-06T19:36:02.025Z,98987.00
2018-08-06T19:38:06.179Z,98981.00
2018-08-06T19:40:11.407Z,98989.00
2018-08-06T19:42:16.212Z,98992.00
2018-08-06T19:44:21.363Z,98993.00
2018-08-06T19:46:26.009Z,98993.00
2018-08-06T19:48:30.058Z,98997.00
2018-08-06T19:50:40.377Z,98993.00
2018-08-06T19:52:46.340Z,98988.00
2018-08-06T19:54:52.561Z,98992.00
2018-08-06T19:57:00.163Z,98993.00
2018-08-06T19:59:05.541Z,98992.00
2018-08-06T20:01:11.354Z,98992.00
2018-08-06T20:03:15.351Z,98992.00
2018-08-06T20:05:19.222Z,98989.00
2018-08-06T20:07:32.815Z,98986.00
2018-08-06T20:09:37.782Z,98984.00
2018-08-06T20:11:42.078Z,98985.00
2018-08-06T20:13:45.685Z,98978.00
2018-08-06T20:15:49.734Z,98977.00
2018-08-06T20:17:53.313Z,98976.00
2018-08-06T20:19:57.714Z,98977.00
2018-08-06T20:22:02.273Z,98981.00
2018-08-06T20:24:06.290Z,98980.00
2018-08-06T20:26:10.092Z,98982.00
2018-08-06T20:28:14.663Z,98978.00
2018-08-06T20:30:21.337Z,98977.00
2018-08-06T20:32:26.883Z,98973.00
2018-08-06T20:34:33.890Z,98977.00
2018-08-06T20:36:42.666Z,98978.00
2018-08-06T20:38:47.080Z,98981.00
2018-08-06T20:40:51.348Z,98983.00
2018-08-06T20:42:55.565Z,98981.00
2018-08-06T20:45:00.694Z,98987.00
2018-08-06T20:47:06.400Z,98986.00
2018-08-06T20:49:10.989Z,98980.00
2018-08-06T20:51:16.591Z,98980.00
2018-08-06T20:53:22.514Z,98983.00
2018-08-06T20:55:30.104Z,98982.00
2018-08-06T20:57:35.122Z,98990.00
2018-08-06T20:59:40.476Z,98986.00
2018-08-06T21:01:45.240Z,98990.00
2018-08-06T21:03:48.813Z,98988.00
2018-08-06T21:05:52.914Z,98989.00
2018-08-06T21:07:56.460Z,98989.00
2018-08-06T21:10:01.209Z,98991.00
2018-08-06T21:12:07.628Z,98989.00
2018-08-06T21:14:11.610Z,98994.00
2018-08-06T21:16:15.417Z,98986.00
2018-08-06T21:18:21.098Z,98988.00
2018-08-06T21:20:25.694Z,98989.00
2018-08-06T21:22:31.926Z,98990.00
2018-08-06T21:24:40.080Z,98988.00
2018-08-06T21:26:47.273Z,98987.00
2018-08-06T21:28:50.908Z,98990.00
2018-08-06T21:30:54.821Z,98990.00
2018-08-06T21:33:00.048Z,98987.00
2018-08-06T21:35:04.021Z,98988.00
2018-08-06T21:37:09.360Z,98986.00
2018-08-06T21:39:13.244Z,98983.00
2018-08-06T21:41:17.389Z,98981.00
2018-08-06T21:43:22.001Z,98979.00
2018-08-06T21:45:27.089Z,98978.00
2018-08-06T21:47:31.721Z,98979.00
2018-08-06T21:49:39.988Z,98980.00
2018-08-06T21:51:45.588Z,98972.00
2018-08-06T21:53:52.380Z,98974.00
2018-08-06T21:55:56.864Z,98972.00
2018-08-06T21:58:01.238Z,98973.00
2018-08-06T22:00:09.194Z,98973.00
2018-08-06T22:02:13.784Z,98972.00
2018-08-06T22:04:18.880Z,98968.00
2018-08-06T22:06:23.099Z,98966.00
2018-08-06T22:08:28.646Z,98971.00
2018-08-06T22:10:32.512Z,98967.00
2018-08-06T22:12:37.090Z,98966.00
2018-08-06T22:14:45.670Z,98968.00
2018-08-06T22:16:56.947Z,98961.00
2018-08-06T22:19:01.375Z,98960.00
2018-08-06T22:21:05.512Z,98964.00
2018-08-06T22:23:09.633Z,98968.00
2018-08-06T22:25:13.369Z,98970.00
2018-08-06T22:27:17.738Z,98972.00
2018-08-06T22:29:21.340Z,98970.00
2018-08-06T22:31:24.906Z,98969.00
2018-08-06T22:33:28.529Z,98968.00
2018-08-06T22:35:32.152Z,98972.00
2018-08-06T22:37:35.875Z,98963.00
2018-08-06T22:39:40.259Z,98964.00
2018-08-06T22:41:45.972Z,98964.00
2018-08-06T22:43:53.155Z,98962.00
2018-08-06T22:45:59.891Z,98961.00
2018-08-06T22:48:04.284Z,98963.00
2018-08-06T22:50:09.657Z,98962.00
2018-08-06T22:52:14.101Z,98960.00
2018-08-06T22:54:17.833Z,98959.00
2018-08-06T22:56:21.789Z,98961.00
2018-08-06T22:58:25.764Z,98954.00
2018-08-06T23:00:29.608Z,98953.00
2018-08-06T23:02:33.312Z,98952.00
2018-08-06T23:04:37.567Z,98953.00
2018-08-06T23:06:42.024Z,98951.00
2018-08-06T23:08:47.163Z,98949.00
2018-08-06T23:10:54.297Z,98950.00
2018-08-06T23:13:04.274Z,98948.00
2018-08-06T23:15:13.323Z,98953.00
2018-08-06T23:17:18.694Z,98948.00
2018-08-06T23:19:23.474Z,98947.00
2018-08-06T23:21:28.481Z,98948.00
2018-08-06T23:23:37.040Z,98946.00
2018-08-06T23:25:44.518Z,98941.00
2018-08-06T23:27:49.310Z,98936.00
2018-08-06T23:29:53.438Z,98942.00
2018-08-06T23:31:57.160Z,98936.00
2018-08-06T23:34:01.326Z,98935.00
2018-08-06T23:36:05.715Z,98929.00
2018-08-06T23:38:10.857Z,98930.00
2018-08-06T23:40:16.083Z,98922.00
2018-08-06T23:42:20.245Z,98929.00
2018-08-06T23:44:27.901Z,98921.00
2018-08-06T23:46:35.880Z,98921.00
2018-08-06T23:48:41.633Z,98919.00
2018-08-06T23:50:45.746Z,98911.00
2018-08-06T23:52:49.437Z,98910.00
2018-08-06T23:54:53.848Z,98910.00
2018-08-06T23:56:57.416Z,98908.00
2018-08-06T23:59:01.209Z,98909.00
